ANA558 RJCH-RJTT
Flight info
| Callsign | ANA558 |
|---|---|
| Flight time | 1h 7m |
| Altitude | 38000 |
| Route | UWE Y32 RUBIS Y10 GODIN |
| Aircraft | B763/H-SDE3FGHIM3RWXY/LB1 |
Departure
| Time | 2026-05-07 18:57 |
|---|---|
| Airport | Hakodate Airport (RJCH) |
Arrival
| Time | 2026-05-07 20:05 |
|---|---|
| Airport | Tokyo Haneda International Airport (RJTT) |
| Time | Latitude | Longitude | Altitude | Speed | Heading |
|---|---|---|---|---|---|
| 2026-05-07 18:38 | 41.77492 | 140.81529 | 120 ft | 0 kts | 17° |
| 2026-05-07 18:50 | 41.77480 | 140.81525 | 119 ft | 2 kts | 16° |
| 2026-05-07 18:50 | 41.77466 | 140.81519 | 119 ft | 2 kts | 16° |
| 2026-05-07 18:50 | 41.77451 | 140.81512 | 119 ft | 2 kts | 16° |
| 2026-05-07 18:51 | 41.77437 | 140.81508 | 118 ft | 2 kts | 16° |
| 2026-05-07 18:51 | 41.77428 | 140.81503 | 118 ft | 2 kts | 16° |
| 2026-05-07 18:51 | 41.77405 | 140.81499 | 117 ft | 4 kts | 5° |
| 2026-05-07 18:51 | 41.77373 | 140.81503 | 117 ft | 4 kts | 339° |
| 2026-05-07 18:52 | 41.77350 | 140.81525 | 117 ft | 3 kts | 304° |
| 2026-05-07 18:52 | 41.77343 | 140.81554 | 117 ft | 2 kts | 265° |
| 2026-05-07 18:52 | 41.77344 | 140.81564 | 117 ft | 0 kts | 288° |
| 2026-05-07 18:52 | 41.77341 | 140.81575 | 118 ft | 1 kts | 285° |
| 2026-05-07 18:53 | 41.77340 | 140.81580 | 118 ft | 0 kts | 288° |
| 2026-05-07 18:54 | 41.77349 | 140.81541 | 117 ft | 9 kts | 289° |
| 2026-05-07 18:54 | 41.77385 | 140.81400 | 114 ft | 22 kts | 288° |
| 2026-05-07 18:55 | 41.77439 | 140.81184 | 109 ft | 25 kts | 288° |
| 2026-05-07 18:55 | 41.77492 | 140.80968 | 109 ft | 25 kts | 288° |
| 2026-05-07 18:55 | 41.77545 | 140.80753 | 105 ft | 20 kts | 287° |
| 2026-05-07 18:55 | 41.77550 | 140.80589 | 102 ft | 16 kts | 249° |
| 2026-05-07 18:56 | 41.77457 | 140.80525 | 99 ft | 9 kts | 185° |
| 2026-05-07 18:56 | 41.77420 | 140.80551 | 99 ft | 0 kts | 106° |
| 2026-05-07 18:56 | 41.77417 | 140.80569 | 99 ft | 9 kts | 107° |
| 2026-05-07 18:57 | 41.77335 | 140.80914 | 104 ft | 72 kts | 107° |
| 2026-05-07 18:57 | 41.77113 | 140.81822 | 116 ft | 131 kts | 107° |
| 2026-05-07 18:57 | 41.76790 | 140.83147 | 361 ft | 159 kts | 108° |
| 2026-05-07 18:57 | 41.76314 | 140.84557 | 815 ft | 177 kts | 127° |
| 2026-05-07 18:58 | 41.75199 | 140.85480 | 1126 ft | 207 kts | 175° |
| 2026-05-07 18:58 | 41.73840 | 140.85001 | 1702 ft | 218 kts | 219° |
| 2026-05-07 18:58 | 41.72696 | 140.83694 | 2609 ft | 217 kts | 224° |
| 2026-05-07 18:58 | 41.71572 | 140.82310 | 3346 ft | 218 kts | 227° |
| 2026-05-07 18:59 | 41.70524 | 140.80876 | 4010 ft | 225 kts | 226° |
| 2026-05-07 18:59 | 41.69365 | 140.79421 | 4407 ft | 229 kts | 224° |
| 2026-05-07 18:59 | 41.68148 | 140.77956 | 4923 ft | 248 kts | 224° |
| 2026-05-07 18:59 | 41.66815 | 140.76393 | 5464 ft | 260 kts | 223° |
| 2026-05-07 19:00 | 41.65432 | 140.74800 | 5969 ft | 260 kts | 223° |
| 2026-05-07 19:00 | 41.64072 | 140.73245 | 6516 ft | 258 kts | 223° |
| 2026-05-07 19:00 | 41.62708 | 140.71692 | 7158 ft | 261 kts | 223° |
| 2026-05-07 19:00 | 41.61342 | 140.70140 | 7787 ft | 263 kts | 223° |
| 2026-05-07 19:01 | 41.59946 | 140.68558 | 8413 ft | 265 kts | 223° |
| 2026-05-07 19:01 | 41.58586 | 140.67020 | 9018 ft | 264 kts | 223° |
| 2026-05-07 19:01 | 41.57212 | 140.65468 | 9626 ft | 265 kts | 223° |
| 2026-05-07 19:01 | 41.55800 | 140.63872 | 10250 ft | 268 kts | 223° |
| 2026-05-07 19:02 | 41.54375 | 140.62264 | 10871 ft | 267 kts | 223° |
| 2026-05-07 19:02 | 41.52916 | 140.60616 | 11289 ft | 288 kts | 223° |
| 2026-05-07 19:02 | 41.51312 | 140.58804 | 11717 ft | 317 kts | 223° |
| 2026-05-07 19:02 | 41.49576 | 140.56848 | 12160 ft | 343 kts | 222° |
| 2026-05-07 19:03 | 41.47719 | 140.54762 | 12664 ft | 351 kts | 222° |
| 2026-05-07 19:03 | 41.45855 | 140.52669 | 13133 ft | 349 kts | 223° |
| 2026-05-07 19:03 | 41.44012 | 140.50600 | 13617 ft | 349 kts | 223° |
| 2026-05-07 19:03 | 41.42155 | 140.48515 | 14099 ft | 352 kts | 223° |
| 2026-05-07 19:04 | 41.40266 | 140.46396 | 14584 ft | 355 kts | 223° |
| 2026-05-07 19:04 | 41.38413 | 140.44321 | 15162 ft | 354 kts | 222° |
| 2026-05-07 19:04 | 41.36519 | 140.42198 | 15760 ft | 356 kts | 222° |
| 2026-05-07 19:04 | 41.34639 | 140.40093 | 16351 ft | 359 kts | 222° |
| 2026-05-07 19:05 | 41.32709 | 140.37933 | 16940 ft | 362 kts | 222° |
| 2026-05-07 19:05 | 41.30792 | 140.35792 | 17523 ft | 362 kts | 223° |
| 2026-05-07 19:05 | 41.28876 | 140.33653 | 18115 ft | 363 kts | 222° |
| 2026-05-07 19:05 | 41.26940 | 140.31494 | 18703 ft | 368 kts | 222° |
| 2026-05-07 19:06 | 41.24987 | 140.29315 | 19292 ft | 371 kts | 222° |
| 2026-05-07 19:06 | 41.21027 | 140.24907 | 20436 ft | 375 kts | 222° |
| 2026-05-07 19:06 | 41.19022 | 140.22678 | 21009 ft | 378 kts | 222° |
| 2026-05-07 19:07 | 41.17027 | 140.20480 | 21554 ft | 379 kts | 220° |
| 2026-05-07 19:07 | 41.14802 | 140.18590 | 22109 ft | 388 kts | 211° |
| 2026-05-07 19:07 | 41.12337 | 140.17308 | 22662 ft | 398 kts | 201° |
| 2026-05-07 19:07 | 41.09580 | 140.16618 | 23238 ft | 411 kts | 192° |
| 2026-05-07 19:08 | 41.06720 | 140.16560 | 23826 ft | 419 kts | 185° |
| 2026-05-07 19:08 | 41.03924 | 140.16634 | 24391 ft | 420 kts | 187° |
| 2026-05-07 19:08 | 41.01087 | 140.16681 | 24989 ft | 424 kts | 187° |
| 2026-05-07 19:08 | 40.98167 | 140.16728 | 25605 ft | 426 kts | 187° |
| 2026-05-07 19:09 | 40.95205 | 140.16774 | 26151 ft | 432 kts | 187° |
| 2026-05-07 19:09 | 40.92212 | 140.16820 | 26878 ft | 433 kts | 187° |
| 2026-05-07 19:09 | 40.89180 | 140.16864 | 27410 ft | 438 kts | 187° |
| 2026-05-07 19:09 | 40.86105 | 140.16907 | 27720 ft | 444 kts | 187° |
| 2026-05-07 19:10 | 40.83005 | 140.16959 | 28188 ft | 438 kts | 187° |
| 2026-05-07 19:10 | 40.80006 | 140.17004 | 28640 ft | 435 kts | 187° |
| 2026-05-07 19:10 | 40.76998 | 140.17049 | 29095 ft | 435 kts | 188° |
| 2026-05-07 19:10 | 40.73962 | 140.17091 | 29565 ft | 437 kts | 188° |
| 2026-05-07 19:11 | 40.70916 | 140.17134 | 30045 ft | 436 kts | 187° |
| 2026-05-07 19:11 | 40.67884 | 140.17180 | 30522 ft | 432 kts | 188° |
| 2026-05-07 19:11 | 40.64908 | 140.17224 | 30994 ft | 431 kts | 188° |
| 2026-05-07 19:11 | 40.61908 | 140.17265 | 31472 ft | 432 kts | 187° |
| 2026-05-07 19:12 | 40.58906 | 140.17310 | 31950 ft | 429 kts | 188° |
| 2026-05-07 19:12 | 40.55964 | 140.17352 | 32417 ft | 427 kts | 188° |
| 2026-05-07 19:12 | 40.53001 | 140.17395 | 32899 ft | 425 kts | 188° |
| 2026-05-07 19:12 | 40.50035 | 140.17438 | 33369 ft | 424 kts | 188° |
| 2026-05-07 19:13 | 40.47088 | 140.17480 | 33889 ft | 424 kts | 188° |
| 2026-05-07 19:13 | 40.44169 | 140.17522 | 34411 ft | 422 kts | 188° |
| 2026-05-07 19:13 | 40.41206 | 140.17564 | 34882 ft | 422 kts | 188° |
| 2026-05-07 19:13 | 40.38301 | 140.17606 | 35317 ft | 422 kts | 188° |
| 2026-05-07 19:14 | 40.35356 | 140.17647 | 35762 ft | 424 kts | 188° |
| 2026-05-07 19:14 | 40.32404 | 140.17690 | 36209 ft | 423 kts | 188° |
| 2026-05-07 19:14 | 40.29444 | 140.17732 | 36659 ft | 423 kts | 188° |
| 2026-05-07 19:14 | 40.26535 | 140.17775 | 37124 ft | 423 kts | 188° |
| 2026-05-07 19:15 | 40.23579 | 140.17815 | 37461 ft | 424 kts | 188° |
| 2026-05-07 19:15 | 40.20621 | 140.17857 | 37709 ft | 426 kts | 188° |
| 2026-05-07 19:15 | 40.17667 | 140.17900 | 37845 ft | 425 kts | 188° |
| 2026-05-07 19:15 | 40.14699 | 140.17943 | 37823 ft | 426 kts | 188° |
| 2026-05-07 19:16 | 40.08807 | 140.18028 | 37837 ft | 423 kts | 188° |
| 2026-05-07 19:16 | 40.02936 | 140.18109 | 37834 ft | 425 kts | 188° |
| 2026-05-07 19:17 | 39.97012 | 140.18193 | 37832 ft | 426 kts | 187° |
| 2026-05-07 19:17 | 39.91131 | 140.18278 | 37820 ft | 426 kts | 187° |
| 2026-05-07 19:18 | 39.85174 | 140.18361 | 37823 ft | 427 kts | 187° |
| 2026-05-07 19:18 | 39.79269 | 140.18445 | 37824 ft | 428 kts | 187° |
| 2026-05-07 19:19 | 39.73345 | 140.18530 | 37826 ft | 427 kts | 187° |
| 2026-05-07 19:19 | 39.67416 | 140.18611 | 37837 ft | 429 kts | 187° |
| 2026-05-07 19:20 | 39.61449 | 140.18771 | 37824 ft | 432 kts | 183° |
| 2026-05-07 19:20 | 39.55434 | 140.19595 | 37825 ft | 435 kts | 182° |
| 2026-05-07 19:21 | 39.49450 | 140.20428 | 37827 ft | 435 kts | 182° |
| 2026-05-07 19:21 | 39.43428 | 140.21274 | 37827 ft | 436 kts | 182° |
| 2026-05-07 19:22 | 39.37373 | 140.22127 | 37827 ft | 437 kts | 182° |
| 2026-05-07 19:22 | 39.31340 | 140.22975 | 37831 ft | 436 kts | 181° |
| 2026-05-07 19:23 | 39.25336 | 140.23816 | 37833 ft | 438 kts | 181° |
| 2026-05-07 19:23 | 39.19264 | 140.24669 | 37829 ft | 439 kts | 181° |
| 2026-05-07 19:24 | 39.13187 | 140.25519 | 37831 ft | 439 kts | 181° |
| 2026-05-07 19:24 | 39.07106 | 140.26369 | 37839 ft | 440 kts | 181° |
| 2026-05-07 19:25 | 39.01035 | 140.27216 | 37844 ft | 440 kts | 181° |
| 2026-05-07 19:25 | 38.94961 | 140.28059 | 37839 ft | 438 kts | 181° |
| 2026-05-07 19:26 | 38.88896 | 140.28899 | 37844 ft | 440 kts | 181° |
| 2026-05-07 19:26 | 38.82804 | 140.29742 | 37847 ft | 442 kts | 181° |
| 2026-05-07 19:27 | 38.76728 | 140.30585 | 37846 ft | 440 kts | 181° |
| 2026-05-07 19:27 | 38.70650 | 140.31422 | 37844 ft | 441 kts | 181° |
| 2026-05-07 19:28 | 38.64542 | 140.32266 | 37844 ft | 442 kts | 181° |
| 2026-05-07 19:28 | 38.58428 | 140.33107 | 37846 ft | 443 kts | 181° |
| 2026-05-07 19:29 | 38.52285 | 140.33952 | 37856 ft | 443 kts | 181° |
| 2026-05-07 19:29 | 38.46164 | 140.34792 | 37868 ft | 444 kts | 181° |
| 2026-05-07 19:30 | 38.40053 | 140.35683 | 37853 ft | 448 kts | 176° |
| 2026-05-07 19:30 | 38.34007 | 140.37958 | 37855 ft | 459 kts | 168° |
| 2026-05-07 19:31 | 38.27931 | 140.40569 | 37849 ft | 458 kts | 168° |
| 2026-05-07 19:31 | 38.21946 | 140.43162 | 37855 ft | 458 kts | 168° |
| 2026-05-07 19:32 | 38.15890 | 140.45789 | 37853 ft | 458 kts | 168° |
| 2026-05-07 19:32 | 38.09891 | 140.48389 | 37855 ft | 460 kts | 168° |
| 2026-05-07 19:33 | 38.03802 | 140.51024 | 37851 ft | 461 kts | 168° |
| 2026-05-07 19:33 | 37.97757 | 140.53636 | 37833 ft | 461 kts | 167° |
| 2026-05-07 19:34 | 37.91677 | 140.56258 | 37823 ft | 460 kts | 167° |
| 2026-05-07 19:34 | 37.85645 | 140.58855 | 37835 ft | 461 kts | 167° |
| 2026-05-07 19:35 | 37.79574 | 140.61438 | 37840 ft | 458 kts | 170° |
| 2026-05-07 19:35 | 37.76500 | 140.62259 | 37848 ft | 443 kts | 179° |
| 2026-05-07 19:35 | 37.73472 | 140.62410 | 37846 ft | 429 kts | 189° |
| 2026-05-07 19:36 | 37.67669 | 140.61279 | 37838 ft | 424 kts | 196° |
| 2026-05-07 19:36 | 37.61882 | 140.59766 | 37614 ft | 431 kts | 197° |
| 2026-05-07 19:37 | 37.58944 | 140.58952 | 37067 ft | 434 kts | 197° |
| 2026-05-07 19:37 | 37.55976 | 140.58119 | 36539 ft | 432 kts | 197° |
| 2026-05-07 19:37 | 37.53090 | 140.57303 | 36023 ft | 428 kts | 197° |
| 2026-05-07 19:37 | 37.50182 | 140.56474 | 35499 ft | 426 kts | 197° |
| 2026-05-07 19:38 | 37.47305 | 140.55653 | 34987 ft | 427 kts | 198° |
| 2026-05-07 19:38 | 37.44379 | 140.54816 | 34471 ft | 430 kts | 197° |
| 2026-05-07 19:38 | 37.41479 | 140.53986 | 33969 ft | 434 kts | 197° |
| 2026-05-07 19:38 | 37.38525 | 140.53142 | 33442 ft | 436 kts | 197° |
| 2026-05-07 19:39 | 37.35560 | 140.52296 | 32922 ft | 437 kts | 197° |
| 2026-05-07 19:39 | 37.32586 | 140.51447 | 32411 ft | 438 kts | 197° |
| 2026-05-07 19:39 | 37.29613 | 140.50600 | 31869 ft | 441 kts | 197° |
| 2026-05-07 19:39 | 37.27631 | 140.50034 | 31475 ft | 443 kts | 197° |
| 2026-05-07 19:40 | 37.23603 | 140.48888 | 30689 ft | 445 kts | 197° |
| 2026-05-07 19:40 | 37.20594 | 140.48032 | 30103 ft | 445 kts | 197° |
| 2026-05-07 19:40 | 37.17583 | 140.47176 | 29513 ft | 443 kts | 197° |
| 2026-05-07 19:40 | 37.14608 | 140.46333 | 28933 ft | 438 kts | 197° |
| 2026-05-07 19:41 | 37.11648 | 140.45494 | 28359 ft | 433 kts | 197° |
| 2026-05-07 19:41 | 37.08731 | 140.44667 | 27785 ft | 428 kts | 197° |
| 2026-05-07 19:41 | 37.05842 | 140.43849 | 27208 ft | 423 kts | 197° |
| 2026-05-07 19:41 | 37.03028 | 140.43051 | 26644 ft | 420 kts | 197° |
| 2026-05-07 19:42 | 37.00152 | 140.42238 | 26067 ft | 416 kts | 197° |
| 2026-05-07 19:42 | 36.97353 | 140.41446 | 25492 ft | 413 kts | 197° |
| 2026-05-07 19:42 | 36.94576 | 140.40663 | 24922 ft | 410 kts | 197° |
| 2026-05-07 19:42 | 36.91822 | 140.39885 | 24355 ft | 406 kts | 197° |
| 2026-05-07 19:43 | 36.89062 | 140.39107 | 23790 ft | 403 kts | 197° |
| 2026-05-07 19:43 | 36.86361 | 140.38345 | 23246 ft | 399 kts | 197° |
| 2026-05-07 19:43 | 36.83684 | 140.37593 | 22702 ft | 395 kts | 197° |
| 2026-05-07 19:43 | 36.81003 | 140.36838 | 22153 ft | 391 kts | 197° |
| 2026-05-07 19:44 | 36.78380 | 140.36099 | 21609 ft | 388 kts | 197° |
| 2026-05-07 19:44 | 36.75767 | 140.35365 | 21069 ft | 385 kts | 197° |
| 2026-05-07 19:44 | 36.73160 | 140.34701 | 20520 ft | 383 kts | 193° |
| 2026-05-07 19:44 | 36.70524 | 140.34196 | 19975 ft | 381 kts | 194° |
| 2026-05-07 19:45 | 36.67941 | 140.33676 | 19432 ft | 377 kts | 193° |
| 2026-05-07 19:45 | 36.65362 | 140.33162 | 18885 ft | 373 kts | 193° |
| 2026-05-07 19:45 | 36.62800 | 140.32648 | 18335 ft | 370 kts | 193° |
| 2026-05-07 19:45 | 36.60294 | 140.32144 | 17794 ft | 369 kts | 193° |
| 2026-05-07 19:46 | 36.57761 | 140.31638 | 17209 ft | 365 kts | 193° |
| 2026-05-07 19:46 | 36.55302 | 140.31146 | 16580 ft | 354 kts | 193° |
| 2026-05-07 19:46 | 36.52897 | 140.30666 | 15976 ft | 344 kts | 193° |
| 2026-05-07 19:46 | 36.50591 | 140.30203 | 15385 ft | 335 kts | 193° |
| 2026-05-07 19:47 | 36.48332 | 140.29750 | 14792 ft | 328 kts | 193° |
| 2026-05-07 19:47 | 36.46084 | 140.29301 | 14190 ft | 321 kts | 193° |
| 2026-05-07 19:47 | 36.43963 | 140.28668 | 13595 ft | 310 kts | 206° |
| 2026-05-07 19:47 | 36.42170 | 140.27313 | 13028 ft | 302 kts | 224° |
| 2026-05-07 19:48 | 36.40871 | 140.25337 | 12467 ft | 298 kts | 241° |
| 2026-05-07 19:48 | 36.40073 | 140.22978 | 11893 ft | 296 kts | 249° |
| 2026-05-07 19:48 | 36.39435 | 140.20570 | 11381 ft | 289 kts | 251° |
| 2026-05-07 19:48 | 36.38878 | 140.18234 | 10899 ft | 284 kts | 253° |
| 2026-05-07 19:49 | 36.38364 | 140.15897 | 10406 ft | 279 kts | 253° |
| 2026-05-07 19:49 | 36.37880 | 140.13594 | 9919 ft | 274 kts | 254° |
| 2026-05-07 19:49 | 36.37418 | 140.11330 | 9432 ft | 271 kts | 254° |
| 2026-05-07 19:49 | 36.36962 | 140.09068 | 8936 ft | 270 kts | 255° |
| 2026-05-07 19:50 | 36.36515 | 140.06825 | 8443 ft | 270 kts | 255° |
| 2026-05-07 19:50 | 36.36072 | 140.04594 | 8029 ft | 268 kts | 255° |
| 2026-05-07 19:50 | 36.35450 | 140.02444 | 7997 ft | 265 kts | 237° |
| 2026-05-07 19:50 | 36.34119 | 140.00870 | 8020 ft | 267 kts | 209° |
| 2026-05-07 19:51 | 36.32312 | 140.00223 | 8032 ft | 275 kts | 189° |
| 2026-05-07 19:51 | 36.30398 | 139.99989 | 8003 ft | 275 kts | 188° |
| 2026-05-07 19:51 | 36.28517 | 139.99788 | 7986 ft | 272 kts | 187° |
| 2026-05-07 19:51 | 36.26615 | 139.99620 | 7996 ft | 273 kts | 186° |
| 2026-05-07 19:52 | 36.24727 | 139.99472 | 7995 ft | 270 kts | 186° |
| 2026-05-07 19:52 | 36.22881 | 139.99339 | 7984 ft | 257 kts | 186° |
| 2026-05-07 19:52 | 36.21117 | 139.99216 | 7988 ft | 252 kts | 186° |
| 2026-05-07 19:52 | 36.19381 | 139.99095 | 7957 ft | 254 kts | 186° |
| 2026-05-07 19:53 | 36.17608 | 139.98976 | 7746 ft | 253 kts | 186° |
| 2026-05-07 19:53 | 36.15857 | 139.98859 | 7565 ft | 248 kts | 186° |
| 2026-05-07 19:53 | 36.14145 | 139.98746 | 7422 ft | 245 kts | 186° |
| 2026-05-07 19:53 | 36.12418 | 139.98630 | 7278 ft | 246 kts | 186° |
| 2026-05-07 19:54 | 36.10726 | 139.98520 | 7130 ft | 244 kts | 186° |
| 2026-05-07 19:54 | 36.09021 | 139.98406 | 7001 ft | 245 kts | 186° |
| 2026-05-07 19:54 | 36.07331 | 139.98294 | 6880 ft | 244 kts | 186° |
| 2026-05-07 19:54 | 36.05646 | 139.98042 | 6755 ft | 243 kts | 193° |
| 2026-05-07 19:55 | 36.03954 | 139.97649 | 6630 ft | 244 kts | 193° |
| 2026-05-07 19:55 | 36.02284 | 139.97276 | 6509 ft | 244 kts | 193° |
| 2026-05-07 19:55 | 36.00612 | 139.96902 | 6383 ft | 245 kts | 192° |
| 2026-05-07 19:55 | 35.98941 | 139.96529 | 6261 ft | 245 kts | 192° |
| 2026-05-07 19:56 | 35.97263 | 139.96155 | 6143 ft | 240 kts | 192° |
| 2026-05-07 19:56 | 35.95654 | 139.95796 | 6028 ft | 233 kts | 192° |
| 2026-05-07 19:56 | 35.94055 | 139.95445 | 5891 ft | 230 kts | 189° |
| 2026-05-07 19:56 | 35.92455 | 139.95625 | 5784 ft | 235 kts | 164° |
| 2026-05-07 19:57 | 35.90905 | 139.96283 | 5678 ft | 235 kts | 164° |
| 2026-05-07 19:57 | 35.89362 | 139.96928 | 5467 ft | 235 kts | 163° |
| 2026-05-07 19:57 | 35.87822 | 139.97586 | 5248 ft | 235 kts | 163° |
| 2026-05-07 19:57 | 35.86265 | 139.98084 | 5031 ft | 232 kts | 181° |
| 2026-05-07 19:58 | 35.84665 | 139.97963 | 5001 ft | 228 kts | 187° |
| 2026-05-07 19:58 | 35.83094 | 139.97818 | 4986 ft | 229 kts | 186° |
| 2026-05-07 19:58 | 35.81479 | 139.97658 | 4990 ft | 231 kts | 187° |
| 2026-05-07 19:58 | 35.79899 | 139.97461 | 4997 ft | 225 kts | 194° |
| 2026-05-07 19:59 | 35.78564 | 139.96658 | 5027 ft | 207 kts | 219° |
| 2026-05-07 19:59 | 35.77445 | 139.95575 | 4944 ft | 206 kts | 220° |
| 2026-05-07 19:59 | 35.76302 | 139.94472 | 4667 ft | 210 kts | 218° |
| 2026-05-07 19:59 | 35.75098 | 139.93436 | 4390 ft | 211 kts | 216° |
| 2026-05-07 20:00 | 35.73928 | 139.92447 | 4160 ft | 204 kts | 216° |
| 2026-05-07 20:00 | 35.72773 | 139.91454 | 3865 ft | 199 kts | 217° |
| 2026-05-07 20:00 | 35.71668 | 139.90501 | 3590 ft | 195 kts | 217° |
| 2026-05-07 20:00 | 35.70560 | 139.89549 | 3316 ft | 191 kts | 218° |
| 2026-05-07 20:01 | 35.69481 | 139.88621 | 3054 ft | 187 kts | 218° |
| 2026-05-07 20:01 | 35.68437 | 139.87724 | 2806 ft | 183 kts | 218° |
| 2026-05-07 20:01 | 35.67398 | 139.86832 | 2561 ft | 182 kts | 218° |
| 2026-05-07 20:01 | 35.66381 | 139.85959 | 2323 ft | 175 kts | 217° |
| 2026-05-07 20:02 | 35.65403 | 139.85121 | 2082 ft | 166 kts | 217° |
| 2026-05-07 20:02 | 35.64475 | 139.84322 | 1863 ft | 163 kts | 217° |
| 2026-05-07 20:02 | 35.63546 | 139.83527 | 1661 ft | 163 kts | 218° |
| 2026-05-07 20:02 | 35.62626 | 139.82736 | 1437 ft | 160 kts | 217° |
| 2026-05-07 20:03 | 35.61723 | 139.81963 | 1228 ft | 158 kts | 217° |
| 2026-05-07 20:03 | 35.60823 | 139.81192 | 1015 ft | 155 kts | 216° |
| 2026-05-07 20:03 | 35.59974 | 139.80467 | 825 ft | 140 kts | 216° |
| 2026-05-07 20:03 | 35.59205 | 139.79807 | 611 ft | 129 kts | 216° |
| 2026-05-07 20:04 | 35.58478 | 139.79182 | 458 ft | 129 kts | 214° |
| 2026-05-07 20:04 | 35.57737 | 139.78554 | 303 ft | 131 kts | 213° |
| 2026-05-07 20:04 | 35.57000 | 139.77925 | 124 ft | 131 kts | 213° |
| 2026-05-07 20:04 | 35.56256 | 139.77292 | 23 ft | 122 kts | 214° |
| 2026-05-07 20:05 | 35.55768 | 139.76874 | 25 ft | 50 kts | 215° |
| 2026-05-07 20:05 | 35.55563 | 139.76700 | 25 ft | 37 kts | 209° |
| 2026-05-07 20:05 | 35.55394 | 139.76631 | 27 ft | 9 kts | 189° |
| 2026-05-07 20:05 | 35.55364 | 139.76625 | 27 ft | 0 kts | 189° |
| 2026-05-07 20:06 | 35.55338 | 139.76622 | 28 ft | 9 kts | 180° |
| 2026-05-07 20:07 | 35.55285 | 139.76671 | 28 ft | 10 kts | 106° |
| 2026-05-07 20:07 | 35.55313 | 139.76747 | 28 ft | 11 kts | 41° |
| 2026-05-07 20:07 | 35.55381 | 139.76808 | 27 ft | 13 kts | 36° |
| 2026-05-07 20:07 | 35.55460 | 139.76877 | 28 ft | 14 kts | 36° |
| 2026-05-07 20:08 | 35.55549 | 139.76953 | 27 ft | 17 kts | 35° |
| 2026-05-07 20:08 | 35.55649 | 139.77039 | 29 ft | 17 kts | 35° |
| 2026-05-07 20:08 | 35.55743 | 139.77119 | 30 ft | 17 kts | 36° |
| 2026-05-07 20:08 | 35.55841 | 139.77202 | 28 ft | 14 kts | 34° |
| 2026-05-07 20:09 | 35.55924 | 139.77290 | 28 ft | 16 kts | 53° |
| 2026-05-07 20:09 | 35.55985 | 139.77412 | 28 ft | 18 kts | 60° |
| 2026-05-07 20:09 | 35.56032 | 139.77515 | 27 ft | 12 kts | 60° |
| 2026-05-07 20:10 | 35.56134 | 139.77727 | 26 ft | 16 kts | 60° |
| 2026-05-07 20:10 | 35.56190 | 139.77849 | 27 ft | 16 kts | 60° |
| 2026-05-07 20:10 | 35.56253 | 139.77982 | 26 ft | 19 kts | 60° |
| 2026-05-07 20:10 | 35.56316 | 139.78114 | 25 ft | 15 kts | 59° |
| 2026-05-07 20:11 | 35.56377 | 139.78241 | 20 ft | 19 kts | 60° |
| 2026-05-07 20:11 | 35.56424 | 139.78357 | 16 ft | 13 kts | 90° |
| 2026-05-07 20:11 | 35.56357 | 139.78436 | 16 ft | 14 kts | 149° |
| 2026-05-07 20:11 | 35.56265 | 139.78500 | 16 ft | 15 kts | 150° |
| 2026-05-07 20:12 | 35.56169 | 139.78567 | 17 ft | 16 kts | 149° |
| 2026-05-07 20:12 | 35.56067 | 139.78641 | 17 ft | 17 kts | 150° |
| 2026-05-07 20:12 | 35.55960 | 139.78716 | 18 ft | 18 kts | 148° |
| 2026-05-07 20:12 | 35.55849 | 139.78796 | 18 ft | 19 kts | 150° |
| 2026-05-07 20:13 | 35.55730 | 139.78880 | 18 ft | 20 kts | 150° |
| 2026-05-07 20:13 | 35.55612 | 139.78966 | 17 ft | 17 kts | 150° |
| 2026-05-07 20:13 | 35.55524 | 139.79027 | 17 ft | 12 kts | 150° |
| 2026-05-07 20:13 | 35.55451 | 139.79024 | 18 ft | 10 kts | 222° |
| 2026-05-07 20:14 | 35.55409 | 139.78958 | 21 ft | 8 kts | 236° |
| 2026-05-07 20:14 | 35.55393 | 139.78912 | 23 ft | 3 kts | 262° |
| 2026-05-07 20:14 | 35.55392 | 139.78902 | 23 ft | 0 kts | 268° |
| 2026-05-07 20:14 | 35.55393 | 139.78886 | 23 ft | 3 kts | 274° |
| 2026-05-07 20:15 | 35.55398 | 139.78850 | 24 ft | 4 kts | 282° |
| 2026-05-07 20:15 | 35.55402 | 139.78832 | 25 ft | 0 kts | 283° |
| 2026-05-07 20:15 | 35.55402 | 139.78830 | 25 ft | 0 kts | 284° |
| 2026-05-07 20:15 | 35.55404 | 139.78815 | 25 ft | 3 kts | 284° |
| 2026-05-07 20:16 | 35.55409 | 139.78793 | 26 ft | 0 kts | 284° |